Amarant — CQSF — position and weather

sailwx.info

Track history (hours):
 
Tides and Currents Weather Stations Pressure Air Temp Water Temp Dewpoint Dewpoint Depression Visibility Wind Speed Wind Dir Waves Ship Positions

Amarant

Last reported at 2017-Sep-24 14:55 UTC. Time now 2017-Sep-24 19:43 UTC.
Position N 55°36' E 006°40'.

Length 119 m; draft 5.4 m.

Type: Tanker. MMSI: 255623000.

Date/timePositionNaut miles runAvg speedWind from/ knotsBaromVisibWave heightAir tempDewpointWater temp
2017-Sep-24 14:55N 55°36' E 006°40'13314.3
2017-Sep-24 05:35N 53°39' E 004°52'214.1
2017-Sep-24 05:29N 53°38' E 004°51'714.0
2017-Sep-24 05:00N 53°31' E 004°46'713.7
2017-Sep-24 04:30N 53°25' E 004°42'713.6
2017-Sep-24 04:00N 53°19' E 004°38'713.4
2017-Sep-24 03:30N 53°13' E 004°34'713.4
2017-Sep-24 02:59N 53°07' E 004°27'713.2
2017-Sep-24 02:28N 53°01' E 004°22'613.3
2017-Sep-24 02:00N 52°55' E 004°17'713.2
2017-Sep-24 01:30N 52°49' E 004°13'613.0
2017-Sep-24 01:00N 52°44' E 004°06'713.0
2017-Sep-24 00:30N 52°40' E 003°58'612.9
2017-Sep-24 00:00N 52°35' E 003°51'712.8
2017-Sep-23 23:29N 52°31' E 003°43'612.7
2017-Sep-23 22:59N 52°27' E 003°35'612.5
2017-Sep-23 22:30N 52°21' E 003°32'612.6
2017-Sep-23 22:00N 52°15' E 003°29'812.7
2017-Sep-23 21:21N 52°07' E 003°26'613.0
2017-Sep-23 20:56N 52°01' E 003°24'713.2
2017-Sep-23 20:24N 51°54' E 003°22'513.3
2017-Sep-23 20:00N 51°50' E 003°18'4 0.1
2017-Sep-22 01:51N 51°54' E 003°18'611.6
2017-Sep-22 01:22N 51°59' E 003°20'512.2
2017-Sep-22 01:00N 52°04' E 003°21'10311.9
2017-Sep-21 16:20N 53°32' E 004°50'612.6
2017-Sep-21 15:49N 53°34' E 005°00'8012.8
2017-Sep-21 09:32N 53°57' E 007°11'011.5
2017-Sep-21 09:30N 53°57' E 007°11'3111.5
2017-Sep-21 06:48N 54°01' E 008°03'711.4
2017-Sep-21 06:14N 54°00' E 008°15'313.2
2017-Sep-21 06:00N 53°60' E 008°20'714.8
2017-Sep-21 05:30N 53°58' E 008°32'715.0
2017-Sep-21 05:01N 53°54' E 008°42'714.2
2017-Sep-21 04:30N 53°51' E 008°53'714.4
2017-Sep-21 04:00N 53°52' E 009°04'3 5.9
2017-Sep-21 03:30N 53°54' E 009°09'0 0.5
2017-Sep-21 03:00N 53°54' E 009°09'3 6.1
2017-Sep-21 02:30N 53°56' E 009°13'4 8.6
2017-Sep-21 02:00N 53°59' E 009°17'4 8.6
2017-Sep-21 01:30N 54°04' E 009°19'4 8.4
2017-Sep-21 01:00N 54°08' E 009°20'4 8.2
2017-Sep-21 00:30N 54°10' E 009°26'4 8.6
2017-Sep-21 00:00N 54°12' E 009°32'2 3.1
2017-Sep-20 23:30N 54°13' E 009°35'4 7.4
2017-Sep-20 23:00N 54°16' E 009°38'4 7.6
2017-Sep-20 22:30N 54°18' E 009°43'4 8.0
2017-Sep-20 22:00N 54°21' E 009°47'22 5.3
2017-Sep-20 17:50N 54°31' E 010°21'412.4
2017-Sep-20 17:30N 54°33' E 010°27'612.3
2017-Sep-20 17:00N 54°35' E 010°37'612.2
2017-Sep-20 16:30N 54°35' E 010°48'612.4
2017-Sep-20 16:00N 54°36' E 010°59'611.5
2017-Sep-20 15:30N 54°36' E 011°08'612.0
2017-Sep-20 15:00N 54°34' E 011°18'1212.1
2017-Sep-20 14:00N 54°29' E 011°37'611.8
2017-Sep-20 13:30N 54°26' E 011°46'912.0
2017-Sep-20 12:47N 54°26' E 012°01'311.8
2017-Sep-20 12:30N 54°27' E 012°07'510.9
2017-Sep-20 12:00N 54°31' E 012°12'612.4
2017-Sep-20 11:30N 54°37' E 012°15'5512.2
2017-Sep-20 07:03N 54°60' E 013°42'1112.0
2017-Sep-20 06:06N 55°03' E 014°01'311.6
2017-Sep-20 05:48N 55°05' E 014°06'612.1
2017-Sep-20 05:19N 55°10' E 014°12'612.3
2017-Sep-20 04:51N 55°14' E 014°18'412.5
2017-Sep-20 04:30N 55°18' E 014°22'712.6
2017-Sep-20 03:59N 55°23' E 014°29'1312.4
2017-Sep-20 02:58N 55°31' E 014°47'612.8
2017-Sep-20 02:30N 55°34' E 014°56'612.7
2017-Sep-20 02:00N 55°37' E 015°05'612.6
2017-Sep-20 01:30N 55°40' E 015°15'612.5
2017-Sep-20 01:00N 55°43' E 015°25'612.6
2017-Sep-20 00:30N 55°46' E 015°34'612.6
2017-Sep-20 00:00N 55°49' E 015°44'612.5
2017-Sep-19 23:30N 55°53' E 015°54'612.8
2017-Sep-19 23:00N 55°56' E 016°04'612.9
2017-Sep-19 22:30N 55°59' E 016°14'612.8
2017-Sep-19 22:00N 56°02' E 016°23'612.9
2017-Sep-19 21:30N 56°05' E 016°33'612.4
2017-Sep-19 21:00N 56°09' E 016°43'612.3
2017-Sep-19 20:30N 56°14' E 016°47'713.0
2017-Sep-19 20:00N 56°21' E 016°50'14113.3
2017-Sep-19 09:22N 58°38' E 017°51'513.0
2017-Sep-19 09:00N 58°42' E 017°52'611.5
2017-Sep-19 08:30N 58°47' E 017°58'612.9
2017-Sep-19 08:00N 58°54' E 018°00'2 3.3
2017-Sep-19 07:28N 58°55' E 017°58'0 0.0
2017-Sep-19 06:58N 58°55' E 017°58'0 0.0
2017-Sep-19 06:28N 58°55' E 017°58'0 0.0
2017-Sep-19 05:58N 58°55' E 017°58'0 0.0
2017-Sep-19 05:28N 58°55' E 017°58'0 0.0
2017-Sep-19 04:58N 58°55' E 017°58'0 0.0
2017-Sep-19 04:28N 58°55' E 017°58'0 0.0
2017-Sep-19 03:58N 58°55' E 017°58'0 0.0
2017-Sep-19 03:28N 58°55' E 017°58'0 0.0
2017-Sep-19 02:58N 58°55' E 017°58'0 0.0
2017-Sep-19 02:28N 58°55' E 017°58'0 0.0
2017-Sep-19 01:58N 58°55' E 017°58'0 0.0
2017-Sep-19 01:28N 58°55' E 017°58'0 0.0
2017-Sep-19 00:55N 58°55' E 017°58'0 0.0
2017-Sep-19 00:28N 58°55' E 017°58'0 0.0
2017-Sep-18 23:58N 58°55' E 017°58'0 0.0
2017-Sep-18 23:25N 58°55' E 017°58'0 0.0
2017-Sep-18 22:58N 58°55' E 017°58'0 0.0
2017-Sep-18 22:28N 58°55' E 017°58'0 0.0
2017-Sep-18 21:58N 58°55' E 017°58'0 0.0
2017-Sep-18 21:28N 58°55' E 017°58'0 0.0
2017-Sep-18 20:58N 58°55' E 017°58'0 0.0
2017-Sep-18 20:28N 58°55' E 017°58'0 0.0
2017-Sep-18 19:58N 58°55' E 017°58'0 0.0
2017-Sep-18 19:28N 58°55' E 017°58'0 0.0
2017-Sep-18 18:58N 58°55' E 017°58'0 0.0
2017-Sep-18 18:31N 58°55' E 017°58'0 0.0
2017-Sep-18 18:01N 58°55' E 017°58'0 0.0
2017-Sep-18 17:27N 58°55' E 017°58'0 0.0
2017-Sep-18 17:00N 58°55' E 017°58'0 0.0
2017-Sep-18 16:30N 58°55' E 017°58'0 0.0
2017-Sep-18 16:00N 58°55' E 017°58'0 0.0
2017-Sep-18 15:30N 58°55' E 017°58'0 0.0
2017-Sep-18 14:57N 58°55' E 017°58'0 0.0
2017-Sep-18 14:30N 58°55' E 017°58'0 0.0
2017-Sep-18 14:00N 58°55' E 017°58'0 0.0
2017-Sep-18 13:30N 58°55' E 017°58'0 0.0
2017-Sep-18 13:00N 58°55' E 017°58'0 0.0
2017-Sep-18 12:30N 58°55' E 017°58'0 0.0
2017-Sep-18 12:00N 58°55' E 017°58'0 0.0
2017-Sep-18 11:27N 58°55' E 017°58'0 0.0
2017-Sep-18 11:00N 58°55' E 017°58'0 0.0
2017-Sep-18 10:30N 58°55' E 017°58'0 0.0
2017-Sep-18 10:00N 58°55' E 017°58'0 0.0
2017-Sep-18 09:30N 58°55' E 017°58'0 0.0
2017-Sep-18 08:57N 58°55' E 017°58'0 0.0
2017-Sep-18 08:27N 58°55' E 017°58'0 0.0
2017-Sep-18 07:57N 58°55' E 017°58'0 0.0
2017-Sep-18 07:30N 58°55' E 017°58'0 0.0
2017-Sep-18 07:00N 58°55' E 017°58'0 0.5
2017-Sep-18 06:30N 58°55' E 017°58'4 7.4
2017-Sep-18 06:00N 58°51' E 018°00'713.4
2017-Sep-18 05:30N 58°45' E 017°55'16210.9
2017-Sep-17 14:40N 56°07' E 016°50'212.8
2017-Sep-17 14:29N 56°05' E 016°49'612.8
2017-Sep-17 14:00N 56°02' E 016°39'812.5
2017-Sep-17 13:20N 55°58' E 016°26'412.5
2017-Sep-17 13:00N 55°56' E 016°20'612.6
2017-Sep-17 12:30N 55°52' E 016°10'612.0
2017-Sep-17 12:00N 55°50' E 016°01'611.5
2017-Sep-17 11:30N 55°47' E 015°52'611.5
2017-Sep-17 11:00N 55°44' E 015°43'611.7
2017-Sep-17 10:31N 55°41' E 015°33'713.8
2017-Sep-17 10:00N 55°38' E 015°23'713.9
2017-Sep-17 09:30N 55°35' E 015°12'813.9
2017-Sep-17 08:54N 55°30' E 014°59'614.1
2017-Sep-17 08:30N 55°27' E 014°50'714.1
2017-Sep-17 08:01N 55°23' E 014°41'714.0
2017-Sep-17 07:31N 55°18' E 014°33'713.7
2017-Sep-17 07:01N 55°13' E 014°25'713.9
2017-Sep-17 06:30N 55°08' E 014°17'713.7
2017-Sep-17 06:00N 55°02' E 014°09'713.2
2017-Sep-17 05:27N 54°59' E 013°57'913.7
2017-Sep-17 04:49N 54°57' E 013°43'513.8
2017-Sep-17 04:28N 54°55' E 013°35'4414.0
2017-Sep-17 01:17N 54°38' E 012°24'414.0
2017-Sep-17 01:00N 54°35' E 012°19'714.1
2017-Sep-17 00:31N 54°29' E 012°15'612.8
2017-Sep-17 00:00N 54°24' E 012°07'713.9
2017-Sep-16 23:30N 54°24' E 011°55'1513.1
2017-Sep-16 22:20N 54°29' E 011°30'513.6
2017-Sep-16 22:00N 54°31' E 011°23'713.4
2017-Sep-16 21:31N 54°34' E 011°12'713.9
2017-Sep-16 21:00N 54°35' E 011°00'714.0
2017-Sep-16 20:31N 54°34' E 010°48'814.2
2017-Sep-16 19:58N 54°33' E 010°35'53 4.4
2017-Sep-16 07:57N 54°04' E 009°19'4 8.6
2017-Sep-16 07:30N 54°01' E 009°18'4 8.4
2017-Sep-16 07:00N 53°57' E 009°14'4 7.5
2017-Sep-16 06:30N 53°54' E 009°10'1 2.2
2017-Sep-16 06:00N 53°54' E 009°09'1 2.5
2017-Sep-16 05:30N 53°53' E 009°07'2 4.5
2017-Sep-16 05:00N 53°52' E 009°03'815.1
2017-Sep-16 04:30N 53°50' E 008°51'713.3
2017-Sep-16 04:00N 53°54' E 008°41'714.6
2017-Sep-16 03:30N 53°58' E 008°31'815.8
2017-Sep-16 03:00N 53°60' E 008°18'611.8
2017-Sep-16 02:27N 53°59' E 008°07'9813.5
2017-Sep-15 19:13N 53°34' E 005°27'313.2
2017-Sep-15 19:00N 53°33' E 005°23'713.3
2017-Sep-15 18:30N 53°31' E 005°12'713.1
2017-Sep-15 18:00N 53°28' E 005°02'713.2
2017-Sep-15 17:30N 53°26' E 004°51'612.7
2017-Sep-15 17:00N 53°23' E 004°42'1012.5
2017-Sep-15 16:13N 53°14' E 004°35'312.5
2017-Sep-15 15:57N 53°11' E 004°33'612.5
2017-Sep-15 15:29N 53°06' E 004°27'612.5
2017-Sep-15 15:00N 53°01' E 004°22'612.6
2017-Sep-15 14:30N 52°55' E 004°18'713.0
2017-Sep-15 14:00N 52°49' E 004°14'613.0
2017-Sep-15 13:30N 52°45' E 004°06'713.5
2017-Sep-15 13:01N 52°40' E 003°59'713.6
2017-Sep-15 12:30N 52°35' E 003°51'4813.5
2017-Sep-15 08:55N 51°51' E 003°20'614.1
2017-Sep-15 08:28N 51°45' E 003°16'1012.7
2017-Sep-15 07:43N 51°36' E 003°23'313.7
2017-Sep-15 07:30N 51°34' E 003°25'713.1
2017-Sep-15 07:00N 51°28' E 003°31'4 8.7
2017-Sep-15 06:30N 51°26' E 003°37'5 9.9
2017-Sep-15 06:00N 51°23' E 003°43'611.9
2017-Sep-15 05:30N 51°21' E 003°52'611.7
2017-Sep-15 05:00N 51°26' E 003°58'5 9.6
2017-Sep-15 04:30N 51°22' E 004°04'611.2
2017-Sep-15 04:00N 51°23' E 004°13'612.2
2017-Sep-15 03:30N 51°18' E 004°18'2 3.2
2017-Sep-15 03:01N 51°17' E 004°20'0 0.2
2017-Sep-15 02:30N 51°17' E 004°20'2 3.7
2017-Sep-15 01:58N 51°15' E 004°22'0 0.0
2017-Sep-15 01:27N 51°15' E 004°22'0 0.0
2017-Sep-15 01:00N 51°15' E 004°22'0 0.0
2017-Sep-15 00:31N 51°15' E 004°22'0 0.0
2017-Sep-15 00:00N 51°15' E 004°22'0 0.0
2017-Sep-14 23:30N 51°15' E 004°22'0 0.0
2017-Sep-14 23:00N 51°15' E 004°22'0 0.0
2017-Sep-14 22:30N 51°15' E 004°22'0 0.0
2017-Sep-14 22:00N 51°15' E 004°22'0 0.0
2017-Sep-14 21:30N 51°15' E 004°22'0 0.0
2017-Sep-14 21:00N 51°15' E 004°22'0 0.0
2017-Sep-14 20:30N 51°15' E 004°22'0 0.0
2017-Sep-14 20:00N 51°15' E 004°22'0 0.0
2017-Sep-14 19:30N 51°15' E 004°22'0 0.0
2017-Sep-14 19:00N 51°15' E 004°22'0 0.0
2017-Sep-14 18:30N 51°15' E 004°22'0 0.0
2017-Sep-14 18:00N 51°15' E 004°22'0 0.0
2017-Sep-14 17:30N 51°15' E 004°22'0 0.0
2017-Sep-14 17:00N 51°15' E 004°22'0 0.0
2017-Sep-14 16:30N 51°15' E 004°22'0 0.0
2017-Sep-14 16:00N 51°15' E 004°22'0 0.0
2017-Sep-14 15:30N 51°15' E 004°22'0 0.0
2017-Sep-14 15:00N 51°15' E 004°22'  
Track history (hours):
 
Tides and Currents Weather Stations Pressure Air Temp Water Temp Dewpoint Dewpoint Depression Visibility Wind Speed Wind Dir Waves Ship Positions

Amarant

Last reported at 2017-Sep-24 14:55 UTC. Time now 2017-Sep-24 19:43 UTC.
Position N 55°36' E 006°40'.

Length 119 m; draft 5.4 m.

Type: Tanker. MMSI: 255623000.

Date/timePositionNaut miles runAvg speedWind from/ knotsBaromVisibWave heightAir tempDewpointWater temp
2017-Sep-24 14:55N 55°36' E 006°40'13314.3
2017-Sep-24 05:35N 53°39' E 004°52'214.1
2017-Sep-24 05:29N 53°38' E 004°51'714.0
2017-Sep-24 05:00N 53°31' E 004°46'713.7
2017-Sep-24 04:30N 53°25' E 004°42'713.6
2017-Sep-24 04:00N 53°19' E 004°38'713.4
2017-Sep-24 03:30N 53°13' E 004°34'713.4
2017-Sep-24 02:59N 53°07' E 004°27'713.2
2017-Sep-24 02:28N 53°01' E 004°22'613.3
2017-Sep-24 02:00N 52°55' E 004°17'713.2
2017-Sep-24 01:30N 52°49' E 004°13'613.0
2017-Sep-24 01:00N 52°44' E 004°06'713.0
2017-Sep-24 00:30N 52°40' E 003°58'612.9
2017-Sep-24 00:00N 52°35' E 003°51'712.8
2017-Sep-23 23:29N 52°31' E 003°43'612.7
2017-Sep-23 22:59N 52°27' E 003°35'612.5
2017-Sep-23 22:30N 52°21' E 003°32'612.6
2017-Sep-23 22:00N 52°15' E 003°29'812.7
2017-Sep-23 21:21N 52°07' E 003°26'613.0
2017-Sep-23 20:56N 52°01' E 003°24'713.2
2017-Sep-23 20:24N 51°54' E 003°22'513.3
2017-Sep-23 20:00N 51°50' E 003°18'4 0.1
2017-Sep-22 01:51N 51°54' E 003°18'611.6
2017-Sep-22 01:22N 51°59' E 003°20'512.2
2017-Sep-22 01:00N 52°04' E 003°21'10311.9
2017-Sep-21 16:20N 53°32' E 004°50'612.6
2017-Sep-21 15:49N 53°34' E 005°00'8012.8
2017-Sep-21 09:32N 53°57' E 007°11'011.5
2017-Sep-21 09:30N 53°57' E 007°11'3111.5
2017-Sep-21 06:48N 54°01' E 008°03'711.4
2017-Sep-21 06:14N 54°00' E 008°15'313.2
2017-Sep-21 06:00N 53°60' E 008°20'714.8
2017-Sep-21 05:30N 53°58' E 008°32'715.0
2017-Sep-21 05:01N 53°54' E 008°42'714.2
2017-Sep-21 04:30N 53°51' E 008°53'714.4
2017-Sep-21 04:00N 53°52' E 009°04'3 5.9
2017-Sep-21 03:30N 53°54' E 009°09'0 0.5
2017-Sep-21 03:00N 53°54' E 009°09'3 6.1
2017-Sep-21 02:30N 53°56' E 009°13'4 8.6
2017-Sep-21 02:00N 53°59' E 009°17'4 8.6
2017-Sep-21 01:30N 54°04' E 009°19'4 8.4
2017-Sep-21 01:00N 54°08' E 009°20'4 8.2
2017-Sep-21 00:30N 54°10' E 009°26'4 8.6
2017-Sep-21 00:00N 54°12' E 009°32'2 3.1
2017-Sep-20 23:30N 54°13' E 009°35'4 7.4
2017-Sep-20 23:00N 54°16' E 009°38'4 7.6
2017-Sep-20 22:30N 54°18' E 009°43'4 8.0
2017-Sep-20 22:00N 54°21' E 009°47'22 5.3
2017-Sep-20 17:50N 54°31' E 010°21'412.4
2017-Sep-20 17:30N 54°33' E 010°27'612.3
2017-Sep-20 17:00N 54°35' E 010°37'612.2
2017-Sep-20 16:30N 54°35' E 010°48'612.4
2017-Sep-20 16:00N 54°36' E 010°59'611.5
2017-Sep-20 15:30N 54°36' E 011°08'612.0
2017-Sep-20 15:00N 54°34' E 011°18'1212.1
2017-Sep-20 14:00N 54°29' E 011°37'611.8
2017-Sep-20 13:30N 54°26' E 011°46'912.0
2017-Sep-20 12:47N 54°26' E 012°01'311.8
2017-Sep-20 12:30N 54°27' E 012°07'510.9
2017-Sep-20 12:00N 54°31' E 012°12'612.4
2017-Sep-20 11:30N 54°37' E 012°15'5512.2
2017-Sep-20 07:03N 54°60' E 013°42'1112.0
2017-Sep-20 06:06N 55°03' E 014°01'311.6
2017-Sep-20 05:48N 55°05' E 014°06'612.1
2017-Sep-20 05:19N 55°10' E 014°12'612.3
2017-Sep-20 04:51N 55°14' E 014°18'412.5
2017-Sep-20 04:30N 55°18' E 014°22'712.6
2017-Sep-20 03:59N 55°23' E 014°29'1312.4
2017-Sep-20 02:58N 55°31' E 014°47'612.8
2017-Sep-20 02:30N 55°34' E 014°56'612.7
2017-Sep-20 02:00N 55°37' E 015°05'612.6
2017-Sep-20 01:30N 55°40' E 015°15'612.5
2017-Sep-20 01:00N 55°43' E 015°25'612.6
2017-Sep-20 00:30N 55°46' E 015°34'612.6
2017-Sep-20 00:00N 55°49' E 015°44'612.5
2017-Sep-19 23:30N 55°53' E 015°54'612.8
2017-Sep-19 23:00N 55°56' E 016°04'612.9
2017-Sep-19 22:30N 55°59' E 016°14'612.8
2017-Sep-19 22:00N 56°02' E 016°23'612.9
2017-Sep-19 21:30N 56°05' E 016°33'612.4
2017-Sep-19 21:00N 56°09' E 016°43'612.3
2017-Sep-19 20:30N 56°14' E 016°47'713.0
2017-Sep-19 20:00N 56°21' E 016°50'14113.3
2017-Sep-19 09:22N 58°38' E 017°51'513.0
2017-Sep-19 09:00N 58°42' E 017°52'611.5
2017-Sep-19 08:30N 58°47' E 017°58'612.9
2017-Sep-19 08:00N 58°54' E 018°00'2 3.3
2017-Sep-19 07:28N 58°55' E 017°58'0 0.0
2017-Sep-19 06:58N 58°55' E 017°58'0 0.0
2017-Sep-19 06:28N 58°55' E 017°58'0 0.0
2017-Sep-19 05:58N 58°55' E 017°58'0 0.0
2017-Sep-19 05:28N 58°55' E 017°58'0 0.0
2017-Sep-19 04:58N 58°55' E 017°58'0 0.0
2017-Sep-19 04:28N 58°55' E 017°58'0 0.0
2017-Sep-19 03:58N 58°55' E 017°58'0 0.0
2017-Sep-19 03:28N 58°55' E 017°58'0 0.0
2017-Sep-19 02:58N 58°55' E 017°58'0 0.0
2017-Sep-19 02:28N 58°55' E 017°58'0 0.0
2017-Sep-19 01:58N 58°55' E 017°58'0 0.0
2017-Sep-19 01:28N 58°55' E 017°58'0 0.0
2017-Sep-19 00:55N 58°55' E 017°58'0 0.0
2017-Sep-19 00:28N 58°55' E 017°58'0 0.0
2017-Sep-18 23:58N 58°55' E 017°58'0 0.0
2017-Sep-18 23:25N 58°55' E 017°58'0 0.0
2017-Sep-18 22:58N 58°55' E 017°58'0 0.0
2017-Sep-18 22:28N 58°55' E 017°58'0 0.0
2017-Sep-18 21:58N 58°55' E 017°58'0 0.0
2017-Sep-18 21:28N 58°55' E 017°58'0 0.0
2017-Sep-18 20:58N 58°55' E 017°58'0 0.0
2017-Sep-18 20:28N 58°55' E 017°58'0 0.0
2017-Sep-18 19:58N 58°55' E 017°58'0 0.0
2017-Sep-18 19:28N 58°55' E 017°58'0 0.0
2017-Sep-18 18:58N 58°55' E 017°58'0 0.0
2017-Sep-18 18:31N 58°55' E 017°58'0 0.0
2017-Sep-18 18:01N 58°55' E 017°58'0 0.0
2017-Sep-18 17:27N 58°55' E 017°58'0 0.0
2017-Sep-18 17:00N 58°55' E 017°58'0 0.0
2017-Sep-18 16:30N 58°55' E 017°58'0 0.0
2017-Sep-18 16:00N 58°55' E 017°58'0 0.0
2017-Sep-18 15:30N 58°55' E 017°58'0 0.0
2017-Sep-18 14:57N 58°55' E 017°58'0 0.0
2017-Sep-18 14:30N 58°55' E 017°58'0 0.0
2017-Sep-18 14:00N 58°55' E 017°58'0 0.0
2017-Sep-18 13:30N 58°55' E 017°58'0 0.0
2017-Sep-18 13:00N 58°55' E 017°58'0 0.0
2017-Sep-18 12:30N 58°55' E 017°58'0 0.0
2017-Sep-18 12:00N 58°55' E 017°58'0 0.0
2017-Sep-18 11:27N 58°55' E 017°58'0 0.0
2017-Sep-18 11:00N 58°55' E 017°58'0 0.0
2017-Sep-18 10:30N 58°55' E 017°58'0 0.0
2017-Sep-18 10:00N 58°55' E 017°58'0 0.0
2017-Sep-18 09:30N 58°55' E 017°58'0 0.0
2017-Sep-18 08:57N 58°55' E 017°58'0 0.0
2017-Sep-18 08:27N 58°55' E 017°58'0 0.0
2017-Sep-18 07:57N 58°55' E 017°58'0 0.0
2017-Sep-18 07:30N 58°55' E 017°58'0 0.0
2017-Sep-18 07:00N 58°55' E 017°58'0 0.5
2017-Sep-18 06:30N 58°55' E 017°58'4 7.4
2017-Sep-18 06:00N 58°51' E 018°00'713.4
2017-Sep-18 05:30N 58°45' E 017°55'16210.9
2017-Sep-17 14:40N 56°07' E 016°50'212.8
2017-Sep-17 14:29N 56°05' E 016°49'612.8
2017-Sep-17 14:00N 56°02' E 016°39'812.5
2017-Sep-17 13:20N 55°58' E 016°26'412.5
2017-Sep-17 13:00N 55°56' E 016°20'612.6
2017-Sep-17 12:30N 55°52' E 016°10'612.0
2017-Sep-17 12:00N 55°50' E 016°01'611.5
2017-Sep-17 11:30N 55°47' E 015°52'611.5
2017-Sep-17 11:00N 55°44' E 015°43'611.7
2017-Sep-17 10:31N 55°41' E 015°33'713.8
2017-Sep-17 10:00N 55°38' E 015°23'713.9
2017-Sep-17 09:30N 55°35' E 015°12'813.9
2017-Sep-17 08:54N 55°30' E 014°59'614.1
2017-Sep-17 08:30N 55°27' E 014°50'714.1
2017-Sep-17 08:01N 55°23' E 014°41'714.0
2017-Sep-17 07:31N 55°18' E 014°33'713.7
2017-Sep-17 07:01N 55°13' E 014°25'713.9
2017-Sep-17 06:30N 55°08' E 014°17'713.7
2017-Sep-17 06:00N 55°02' E 014°09'713.2
2017-Sep-17 05:27N 54°59' E 013°57'913.7
2017-Sep-17 04:49N 54°57' E 013°43'513.8
2017-Sep-17 04:28N 54°55' E 013°35'4414.0
2017-Sep-17 01:17N 54°38' E 012°24'414.0
2017-Sep-17 01:00N 54°35' E 012°19'714.1
2017-Sep-17 00:31N 54°29' E 012°15'612.8
2017-Sep-17 00:00N 54°24' E 012°07'713.9
2017-Sep-16 23:30N 54°24' E 011°55'1513.1
2017-Sep-16 22:20N 54°29' E 011°30'513.6
2017-Sep-16 22:00N 54°31' E 011°23'713.4
2017-Sep-16 21:31N 54°34' E 011°12'713.9
2017-Sep-16 21:00N 54°35' E 011°00'714.0
2017-Sep-16 20:31N 54°34' E 010°48'814.2
2017-Sep-16 19:58N 54°33' E 010°35'53 4.4
2017-Sep-16 07:57N 54°04' E 009°19'4 8.6
2017-Sep-16 07:30N 54°01' E 009°18'4 8.4
2017-Sep-16 07:00N 53°57' E 009°14'4 7.5
2017-Sep-16 06:30N 53°54' E 009°10'1 2.2
2017-Sep-16 06:00N 53°54' E 009°09'1 2.5
2017-Sep-16 05:30N 53°53' E 009°07'2 4.5
2017-Sep-16 05:00N 53°52' E 009°03'815.1
2017-Sep-16 04:30N 53°50' E 008°51'713.3
2017-Sep-16 04:00N 53°54' E 008°41'714.6
2017-Sep-16 03:30N 53°58' E 008°31'815.8
2017-Sep-16 03:00N 53°60' E 008°18'611.8
2017-Sep-16 02:27N 53°59' E 008°07'9813.5
2017-Sep-15 19:13N 53°34' E 005°27'313.2
2017-Sep-15 19:00N 53°33' E 005°23'713.3
2017-Sep-15 18:30N 53°31' E 005°12'713.1
2017-Sep-15 18:00N 53°28' E 005°02'713.2
2017-Sep-15 17:30N 53°26' E 004°51'612.7
2017-Sep-15 17:00N 53°23' E 004°42'1012.5
2017-Sep-15 16:13N 53°14' E 004°35'312.5
2017-Sep-15 15:57N 53°11' E 004°33'612.5
2017-Sep-15 15:29N 53°06' E 004°27'612.5
2017-Sep-15 15:00N 53°01' E 004°22'612.6
2017-Sep-15 14:30N 52°55' E 004°18'713.0
2017-Sep-15 14:00N 52°49' E 004°14'613.0
2017-Sep-15 13:30N 52°45' E 004°06'713.5
2017-Sep-15 13:01N 52°40' E 003°59'713.6
2017-Sep-15 12:30N 52°35' E 003°51'4813.5
2017-Sep-15 08:55N 51°51' E 003°20'614.1
2017-Sep-15 08:28N 51°45' E 003°16'1012.7
2017-Sep-15 07:43N 51°36' E 003°23'313.7
2017-Sep-15 07:30N 51°34' E 003°25'713.1
2017-Sep-15 07:00N 51°28' E 003°31'4 8.7
2017-Sep-15 06:30N 51°26' E 003°37'5 9.9
2017-Sep-15 06:00N 51°23' E 003°43'611.9
2017-Sep-15 05:30N 51°21' E 003°52'611.7
2017-Sep-15 05:00N 51°26' E 003°58'5 9.6
2017-Sep-15 04:30N 51°22' E 004°04'611.2
2017-Sep-15 04:00N 51°23' E 004°13'612.2
2017-Sep-15 03:30N 51°18' E 004°18'2 3.2
2017-Sep-15 03:01N 51°17' E 004°20'0 0.2
2017-Sep-15 02:30N 51°17' E 004°20'2 3.7
2017-Sep-15 01:58N 51°15' E 004°22'0 0.0
2017-Sep-15 01:27N 51°15' E 004°22'0 0.0
2017-Sep-15 01:00N 51°15' E 004°22'0 0.0
2017-Sep-15 00:31N 51°15' E 004°22'0 0.0
2017-Sep-15 00:00N 51°15' E 004°22'0 0.0
2017-Sep-14 23:30N 51°15' E 004°22'0 0.0
2017-Sep-14 23:00N 51°15' E 004°22'0 0.0
2017-Sep-14 22:30N 51°15' E 004°22'0 0.0
2017-Sep-14 22:00N 51°15' E 004°22'0 0.0
2017-Sep-14 21:30N 51°15' E 004°22'0 0.0
2017-Sep-14 21:00N 51°15' E 004°22'0 0.0
2017-Sep-14 20:30N 51°15' E 004°22'0 0.0
2017-Sep-14 20:00N 51°15' E 004°22'0 0.0
2017-Sep-14 19:30N 51°15' E 004°22'0 0.0
2017-Sep-14 19:00N 51°15' E 004°22'0 0.0
2017-Sep-14 18:30N 51°15' E 004°22'0 0.0
2017-Sep-14 18:00N 51°15' E 004°22'0 0.0
2017-Sep-14 17:30N 51°15' E 004°22'0 0.0
2017-Sep-14 17:00N 51°15' E 004°22'0 0.0
2017-Sep-14 16:30N 51°15' E 004°22'0 0.0
2017-Sep-14 16:00N 51°15' E 004°22'0 0.0
2017-Sep-14 15:30N 51°15' E 004°22'0 0.0
2017-Sep-14 15:00N 51°15' E 004°22'  

Dump ship's entire track history